Forestville, Canada
Current Conditions -  °F | °C
As of 2:00 AM on Sunday 26 Oct 2014 (Local Time) from CYYY Reporting Station
Light Rain Light Rain  
Wind Chill: 34°   Ceiling: 2000
Heat Index: 39°   Visibility: 10mi
Dew Point: 37°   Wind: 8mph
Humidity: 93%   Direction: 70°ENE
Pressure: 29.46"   Gusts: NA
Location:  48.73°N, 69.07°W
Report Text: CYYY 260600Z 07007KT 10SM -RA OVC020 04/03 A2946 RMK SC8 SLP976
Loading
Personal Weather Stations






























Interactive Weather Map
Tropical Storm Tracking
New forecast layout! Learn more

10-Day Weather Forecast

Advertisements
Track Severe Weather on mobile